Time;durP1;ratioP1;P1;durP2;ratioP2;P2;SDS_P1;SDS_P2;PMS_P1;PMS_P2;Temp;Humidity;BMP_temperature;BMP_pressure;BME280_temperature;BME280_humidity;BME280_pressure;Samples;Min_cycle;Max_cycle;Signal;HPM_P1;HPM_P2
2023/08/23 00:01:56;;;;;;;20.35;11.65;;;;;;;14.59;72.33;99327.13;4891175;29;20503;-70
2023/08/23 00:04:22;;;;;;;22.50;10.50;;;;;;;14.57;72.47;99324.53;4887541;29;20040;-69
2023/08/23 00:06:48;;;;;;;24.10;10.70;;;;;;;14.61;72.49;99335.78;4880414;29;20045;-69
2023/08/23 00:09:16;;;;;;;20.33;10.77;;;;;;;14.54;72.40;99326.41;4885315;29;20559;-70
2023/08/23 00:11:43;;;;;;;19.70;11.00;;;;;;;14.58;72.36;99334.09;4889378;29;20499;-70
2023/08/23 00:14:10;;;;;;;24.20;11.40;;;;;;;14.45;72.47;99317.94;4885947;29;20200;-70
2023/08/23 00:16:36;;;;;;;17.23;11.13;;;;;;;14.52;72.58;99333.47;4887996;29;20040;-69
2023/08/23 00:19:02;;;;;;;23.73;11.15;;;;;;;14.41;72.52;99321.59;4888751;29;20109;-70
2023/08/23 00:21:28;;;;;;;22.98;11.35;;;;;;;14.49;72.76;99344.91;4888079;29;20057;-69
2023/08/23 00:23:57;;;;;;;20.77;11.35;;;;;;;14.49;72.98;99333.56;4900153;29;20044;-70
2023/08/23 00:26:23;;;;;;;18.92;11.18;;;;;;;14.35;72.93;99310.44;4886803;29;20116;-70
2023/08/23 00:28:49;;;;;;;17.95;10.35;;;;;;;14.47;72.82;99333.63;4886230;29;20875;-70
2023/08/23 00:31:15;;;;;;;16.58;9.90;;;;;;;14.41;73.02;99315.47;4899789;29;20183;-71
2023/08/23 00:33:41;;;;;;;20.45;10.95;;;;;;;14.49;73.08;99326.56;4869751;29;20099;-70
2023/08/23 00:36:07;;;;;;;15.82;10.63;;;;;;;14.52;72.94;99328.22;4868439;29;20128;-71
2023/08/23 00:38:33;;;;;;;19.75;10.57;;;;;;;14.51;72.97;99322.16;4880050;29;20044;-72
2023/08/23 00:40:59;;;;;;;18.67;9.93;;;;;;;14.57;72.95;99321.09;4888971;29;20049;-69
2023/08/23 00:43:25;;;;;;;22.52;13.57;;;;;;;14.58;72.99;99333.28;4885710;29;20159;-70
2023/08/23 00:45:52;;;;;;;27.02;14.40;;;;;;;14.52;72.81;99315.13;4872654;29;20056;-68
2023/08/23 00:48:18;;;;;;;26.00;15.48;;;;;;;14.50;72.99;99316.94;4869718;29;20045;-68
2023/08/23 00:50:45;;;;;;;30.27;15.55;;;;;;;14.49;73.14;99313.47;4868623;29;20510;-69
2023/08/23 00:53:12;;;;;;;33.50;17.05;;;;;;;14.55;73.33;99320.28;4884721;29;20127;-69
2023/08/23 00:55:38;;;;;;;26.95;15.73;;;;;;;14.57;73.11;99326.31;4884775;29;20032;-69
2023/08/23 00:58:04;;;;;;;29.73;15.60;;;;;;;14.53;73.05;99329.94;4899963;29;20530;-68
2023/08/23 01:00:31;;;;;;;32.10;16.08;;;;;;;14.42;72.91;99320.69;4874053;29;20045;-70
2023/08/23 01:02:57;;;;;;;34.38;17.27;;;;;;;14.46;73.14;99329.28;4886422;29;20134;-69
2023/08/23 01:05:33;;;;;;;33.35;18.35;;;;;;;14.38;73.21;99316.44;4886136;29;20044;-68
2023/08/23 01:08:19;;;;;;;45.25;18.60;;;;;;;14.33;73.15;99318.34;4899356;29;20096;-68
2023/08/23 01:10:54;;;;;;;31.48;18.80;;;;;;;14.34;73.31;99329.69;4884549;29;20138;-68
2023/08/23 01:13:33;;;;;;;35.20;19.08;;;;;;;14.27;73.26;99324.66;4883431;29;20040;-68
2023/08/23 01:16:00;;;;;;;37.05;19.63;;;;;;;14.24;73.28;99329.09;4884045;29;20048;-68
2023/08/23 01:18:28;;;;;;;33.55;19.90;;;;;;;14.07;73.27;99306.94;4888852;29;20050;-68
2023/08/23 01:20:57;;;;;;;39.80;20.15;;;;;;;14.08;73.46;99308.66;4883665;29;20053;-67
2023/08/23 01:23:24;;;;;;;39.75;20.15;;;;;;;14.12;73.66;99320.75;4883255;29;20127;-68
2023/08/23 01:25:51;;;;;;;36.83;19.40;;;;;;;14.08;73.65;99324.34;4879587;29;20104;-68
2023/08/23 01:28:18;;;;;;;33.03;17.75;;;;;;;14.04;73.49;99316.66;4884402;29;20047;-67
2023/08/23 01:30:47;;;;;;;32.67;17.05;;;;;;;13.90;73.47;99304.88;4889280;29;20470;-68
2023/08/23 01:33:19;;;;;;;30.23;17.13;;;;;;;13.83;72.82;99309.41;4887843;29;20156;-70
2023/08/23 01:35:57;;;;;;;27.35;14.55;;;;;;;13.73;73.36;99313.22;4905993;29;20547;-69
2023/08/23 01:38:26;;;;;;;33.50;17.17;;;;;;;13.81;73.60;99321.66;4909636;29;20094;-71
2023/08/23 01:40:55;;;;;;;30.85;15.55;;;;;;;13.77;73.67;99314.84;4892912;29;20104;-78
2023/08/23 01:43:22;;;;;;;28.80;14.90;;;;;;;13.79;73.47;99317.41;4891134;29;20132;-72
2023/08/23 01:45:48;;;;;;;31.13;15.65;;;;;;;13.70;73.60;99308.06;4891346;29;20176;-73
2023/08/23 01:48:14;;;;;;;30.50;16.00;;;;;;;13.72;73.55;99316.72;4891108;29;20044;-71
2023/08/23 01:50:40;;;;;;;26.80;15.43;;;;;;;13.52;73.94;99283.31;4892635;29;20044;-73
2023/08/23 01:53:06;;;;;;;27.02;15.48;;;;;;;13.66;73.84;99306.44;4907792;29;20411;-72
2023/08/23 01:55:32;;;;;;;27.52;15.07;;;;;;;13.62;73.79;99299.59;4894471;29;20044;-74
2023/08/23 01:57:59;;;;;;;30.02;17.40;;;;;;;13.53;73.90;99280.69;4906262;29;20571;-72
2023/08/23 02:00:25;;;;;;;29.35;16.52;;;;;;;13.43;74.31;99271.38;4875173;29;20554;-73
2023/08/23 02:02:52;;;;;;;25.95;16.75;;;;;;;13.62;74.24;99294.34;4895436;29;20747;-73
2023/08/23 02:05:18;;;;;;;30.27;17.27;;;;;;;13.60;74.16;99293.53;4893101;29;20040;-72
2023/08/23 02:07:46;;;;;;;32.20;17.70;;;;;;;13.62;74.25;99294.34;4892313;29;20048;-72
2023/08/23 02:10:12;;;;;;;35.47;19.08;;;;;;;13.59;74.24;99294.44;4895174;29;20048;-74
2023/08/23 02:12:40;;;;;;;29.67;19.45;;;;;;;13.75;74.21;99311.41;4860143;29;20060;-78
2023/08/23 02:15:07;;;;;;;31.73;19.23;;;;;;;13.80;74.34;99308.66;4867921;29;20044;-77
2023/08/23 02:17:34;;;;;;;27.65;18.85;;;;;;;13.69;74.51;99288.06;4910978;29;20044;-80
2023/08/23 02:20:00;;;;;;;33.80;18.70;;;;;;;13.73;74.30;99281.84;4896818;29;20424;-79
2023/08/23 02:22:29;;;;;;;31.75;17.33;;;;;;;13.80;74.47;99291.19;4861869;29;20048;-79
2023/08/23 02:24:56;;;;;;;28.88;16.50;;;;;;;13.81;74.46;99297.28;4876916;29;20049;-79
2023/08/23 02:27:23;;;;;;;23.92;14.30;;;;;;;13.84;74.59;99299.81;4897560;29;20045;-78
2023/08/23 02:29:49;;;;;;;24.10;12.93;;;;;;;13.63;74.49;99265.56;4913504;29;20062;-79
2023/08/23 02:32:16;;;;;;;19.40;11.68;;;;;;;13.81;74.52;99300.75;4894055;29;20048;-78
2023/08/23 02:34:42;;;;;;;19.27;11.40;;;;;;;13.79;74.60;99307.78;4879718;29;20119;-79
2023/08/23 02:37:07;;;;;;;18.23;11.10;;;;;;;13.82;74.71;99310.31;4890574;29;20559;-79
2023/08/23 02:39:33;;;;;;;19.98;11.63;;;;;;;13.79;74.50;99306.94;4893856;29;20045;-78
2023/08/23 02:41:59;;;;;;;18.13;11.43;;;;;;;13.80;74.53;99309.50;4889654;29;20401;-79
2023/08/23 02:44:25;;;;;;;22.83;11.07;;;;;;;13.72;74.81;99306.28;4892718;29;20056;-79
2023/08/23 02:46:51;;;;;;;19.35;10.15;;;;;;;13.77;74.59;99319.19;4883571;29;20048;-80
2023/08/23 02:49:17;;;;;;;17.33;10.70;;;;;;;13.77;74.58;99319.19;4906711;29;20518;-78
2023/08/23 02:51:43;;;;;;;19.88;10.75;;;;;;;13.80;74.93;99313.88;4906760;29;20036;-81
2023/08/23 02:54:10;;;;;;;22.23;10.20;;;;;;;13.75;75.10;99303.56;4876937;29;20036;-83
2023/08/23 02:56:35;;;;;;;18.50;10.82;;;;;;;13.85;74.87;99314.59;4894511;29;20048;-82
2023/08/23 02:59:02;;;;;;;21.45;10.75;;;;;;;13.82;75.09;99297.22;4909887;29;20036;-79
2023/08/23 03:01:28;;;;;;;18.20;10.02;;;;;;;13.94;75.06;99308.25;4891622;29;20059;-80
2023/08/23 03:03:54;;;;;;;22.25;10.77;;;;;;;13.81;75.08;99284.22;4888181;29;20029;-80
2023/08/23 03:06:21;;;;;;;23.23;10.65;;;;;;;13.98;74.87;99321.16;4887479;29;20045;-80
2023/08/23 03:08:48;;;;;;;15.43;9.82;;;;;;;14.06;74.99;99323.53;4894924;29;20028;-78
2023/08/23 03:11:15;;;;;;;18.00;9.27;;;;;;;14.01;74.79;99305.38;4900910;29;20040;-79
2023/08/23 03:13:40;;;;;;;17.52;9.40;;;;;;;13.89;75.05;99277.00;4892186;29;20050;-80
2023/08/23 03:16:06;;;;;;;17.25;9.35;;;;;;;14.18;74.95;99311.00;4871810;29;20089;-76
2023/08/23 03:18:33;;;;;;;18.27;8.75;;;;;;;14.32;74.96;99321.88;4855981;29;20044;-76
2023/08/23 03:20:59;;;;;;;19.20;8.48;;;;;;;14.20;75.04;99289.09;4904612;29;20044;-76
2023/08/23 03:23:25;;;;;;;20.02;9.73;;;;;;;14.18;75.01;99277.00;4887393;29;20053;-75
2023/08/23 03:25:51;;;;;;;21.85;9.10;;;;;;;14.54;74.80;99326.41;4889089;29;20056;-74
2023/08/23 03:28:19;;;;;;;15.98;8.88;;;;;;;14.43;74.96;99291.00;4906467;29;20039;-74
2023/08/23 03:30:47;;;;;;;16.23;8.95;;;;;;;14.56;74.75;99288.81;4890951;29;20051;-75
2023/08/23 03:33:13;;;;;;;16.25;8.90;;;;;;;14.79;74.93;99317.78;4907467;29;20036;-75
2023/08/23 03:35:39;;;;;;;14.35;8.38;;;;;;;14.80;74.67;99298.53;4866209;29;20047;-76
2023/08/23 03:38:05;;;;;;;19.73;8.63;;;;;;;15.02;74.48;99312.59;4887293;29;20040;-73
2023/08/23 03:40:39;;;;;;;17.40;8.77;;;;;;;15.14;74.60;99311.31;4891258;29;20060;-73
2023/08/23 03:43:05;;;;;;;12.80;7.90;;;;;;;14.99;74.53;99269.94;4890642;29;20505;-75
2023/08/23 03:45:31;;;;;;;18.27;8.23;;;;;;;15.39;74.35;99301.69;4886258;29;20056;-76
2023/08/23 03:47:57;;;;;;;21.08;8.18;;;;;;;15.35;74.23;99266.91;4886796;29;20047;-75
2023/08/23 03:50:23;;;;;;;15.55;8.40;;;;;;;15.73;74.30;99292.59;4888030;29;20044;-74
2023/08/23 03:52:49;;;;;;;14.75;8.02;;;;;;;15.89;73.92;99275.38;4903810;29;20453;-79
2023/08/23 03:55:15;;;;;;;14.57;8.27;;;;;;;16.30;73.87;99282.50;4895627;29;20096;-87
2023/08/23 03:57:41;;;;;;;19.52;7.88;;;;;;;16.78;73.48;99301.53;4900618;29;20047;-86
2023/08/23 04:00:08;;;;;;;13.57;7.47;;;;;;;17.09;73.34;99289.75;4900435;29;20048;-83
2023/08/23 04:02:42;;;;;;;14.00;7.30;;;;;;;17.46;72.93;99289.84;4893045;29;20037;-84
2023/08/23 04:05:11;;;;;;;20.80;7.80;;;;;;;17.83;72.12;99293.41;4895470;29;20041;-87
2023/08/23 04:07:38;;;;;;;11.63;6.93;;;;;;;18.12;71.15;99296.47;4899855;29;20048;-86
2023/08/23 04:10:05;;;;;;;14.57;7.13;;;;;;;18.41;70.73;99294.19;4883615;29;20040;-86
2023/08/23 04:12:31;;;;;;;13.65;7.28;;;;;;;18.65;70.07;99286.84;4898294;29;20052;-86
2023/08/23 04:14:57;;;;;;;12.70;7.13;;;;;;;18.76;69.34;99277.53;4910169;29;20051;-86
2023/08/23 04:17:24;;;;;;;12.20;6.85;;;;;;;18.89;68.70;99273.34;4882248;29;20554;-87
2023/08/23 04:19:50;;;;;;;10.68;6.97;;;;;;;19.09;68.18;99272.34;4896266;29;20048;-82
2023/08/23 04:22:16;;;;;;;13.30;6.53;;;;;;;19.24;67.62;99259.25;4909319;29;20651;-85
2023/08/23 04:24:42;;;;;;;8.38;6.38;;;;;;;19.59;67.25;99260.94;4902325;29;20168;-88
2023/08/23 04:27:08;;;;;;;9.48;5.80;;;;;;;19.91;66.62;99277.66;4869520;29;20037;-86
2023/08/23 04:29:34;;;;;;;10.48;5.95;;;;;;;20.14;65.62;99273.72;4901533;29;20067;-86
2023/08/23 04:32:01;;;;;;;9.68;5.78;;;;;;;20.35;65.32;99281.34;4900506;29;20097;-89
2023/08/23 04:34:30;;;;;;;16.42;6.00;;;;;;;20.42;64.45;99266.00;4897862;29;20040;-86
2023/08/23 04:36:56;;;;;;;8.70;5.95;;;;;;;20.59;63.72;99275.59;4897019;29;20117;-86
2023/08/23 04:39:22;;;;;;;7.30;5.72;;;;;;;20.59;62.77;99267.66;4907547;29;20040;-80
2023/08/23 04:41:48;;;;;;;7.25;5.28;;;;;;;20.53;62.17;99253.00;4901014;29;20204;-81
2023/08/23 04:44:15;;;;;;;10.63;5.72;;;;;;;20.41;61.82;99244.00;4883725;29;20436;-80
2023/08/23 04:46:41;;;;;;;10.73;5.72;;;;;;;20.51;61.94;99280.47;4873469;29;20083;-79
2023/08/23 04:49:07;;;;;;;9.13;5.85;;;;;;;20.41;61.47;99270.41;4888071;29;20481;-80
2023/08/23 04:51:33;;;;;;;12.13;6.57;;;;;;;20.30;60.99;99272.84;4886489;29;20488;-80
2023/08/23 04:53:58;;;;;;;8.75;5.75;;;;;;;20.13;61.20;99276.44;4906824;29;20085;-87
2023/08/23 04:56:24;;;;;;;9.02;5.63;;;;;;;19.96;61.12;99269.50;4883173;29;20048;-87
2023/08/23 04:58:50;;;;;;;11.82;6.05;;;;;;;19.93;61.23;99253.81;4914622;29;20101;-87
2023/08/23 05:01:16;;;;;;;9.23;5.68;;;;;;;20.01;61.21;99263.00;4898424;29;20048;-82
2023/08/23 05:03:44;;;;;;;12.07;5.82;;;;;;;20.08;61.11;99266.16;4888640;29;20079;-80
2023/08/23 05:06:10;;;;;;;10.48;6.15;;;;;;;20.22;60.84;99264.50;4875853;29;20194;-80
2023/08/23 05:08:36;;;;;;;11.38;6.22;;;;;;;20.28;60.98;99264.16;4891558;29;20100;-79
2023/08/23 05:11:12;;;;;;;13.23;6.35;;;;;;;20.26;60.73;99260.75;4903223;29;20044;-78
2023/08/23 05:13:38;;;;;;;10.13;7.00;;;;;;;20.25;60.84;99253.75;4889418;29;20097;-81
2023/08/23 05:16:04;;;;;;;12.68;7.28;;;;;;;20.27;60.88;99262.44;4888241;29;20044;-80
2023/08/23 05:18:30;;;;;;;16.13;7.70;;;;;;;20.14;60.53;99254.38;4892471;29;20051;-80
2023/08/23 05:20:59;;;;;;;11.98;7.47;;;;;;;20.31;60.92;99274.53;4905269;29;20059;-83
2023/08/23 05:23:27;;;;;;;15.02;6.65;;;;;;;20.37;61.32;99268.03;4878382;29;20044;-82
2023/08/23 05:25:54;;;;;;;10.82;6.45;;;;;;;20.44;61.24;99243.81;4878006;29;20108;-83
2023/08/23 05:28:21;;;;;;;10.75;5.70;;;;;;;20.86;61.10;99235.22;4885809;29;20048;-79
2023/08/23 05:30:49;;;;;;;9.48;5.50;;;;;;;22.02;60.58;99267.75;4904234;29;20076;-79
2023/08/23 05:33:18;;;;;;;8.57;5.30;;;;;;;23.24;59.57;99215.47;4902595;29;20033;-79
2023/08/23 05:35:45;;;;;;;9.52;5.55;;;;;;;24.73;57.62;99245.31;4881714;29;20085;-78
2023/08/23 05:38:12;;;;;;;11.50;5.70;;;;;;;24.94;54.70;99249.94;4874323;29;20037;-78
2023/08/23 05:40:39;;;;;;;9.25;5.97;;;;;;;24.90;54.23;99249.34;4899119;29;20055;-79
2023/08/23 05:43:05;;;;;;;12.60;5.88;;;;;;;24.91;52.90;99250.19;4888484;29;20048;-80
2023/08/23 05:45:32;;;;;;;9.30;5.80;;;;;;;24.98;52.37;99253.22;4888623;29;20064;-79
2023/08/23 05:47:59;;;;;;;10.30;5.85;;;;;;;25.21;52.00;99238.09;4887452;29;20044;-78
2023/08/23 05:50:25;;;;;;;16.08;5.50;;;;;;;26.73;51.53;99250.63;4903335;29;20507;-79
2023/08/23 05:52:51;;;;;;;11.13;5.13;;;;;;;27.71;48.89;99214.66;4859498;29;20041;-79
2023/08/23 05:55:17;;;;;;;8.48;4.55;;;;;;;28.13;46.46;99221.63;4885674;29;20072;-76
2023/08/23 05:57:44;;;;;;;8.05;4.85;;;;;;;28.50;44.92;99245.81;4886631;29;20051;-77
2023/08/23 06:00:11;;;;;;;10.32;5.00;;;;;;;29.05;43.79;99244.28;4903359;29;20040;-79
2023/08/23 06:02:40;;;;;;;8.63;4.75;;;;;;;29.18;42.74;99229.72;4890876;29;20043;-79
2023/08/23 06:05:06;;;;;;;11.18;5.45;;;;;;;28.46;41.26;99161.47;4886463;29;20435;-74
2023/08/23 06:07:33;;;;;;;13.57;4.82;;;;;;;28.18;41.49;99220.19;4875297;29;20043;-72
2023/08/23 06:10:01;;;;;;;10.90;4.47;;;;;;;27.32;41.56;99216.22;4871086;29;20127;-69
2023/08/23 06:12:27;;;;;;;7.82;4.40;;;;;;;26.87;42.03;99257.50;4901634;29;20492;-70
2023/08/23 06:14:54;;;;;;;6.68;4.38;;;;;;;26.42;42.79;99247.88;4874054;29;20395;-70
2023/08/23 06:17:21;;;;;;;6.30;4.32;;;;;;;26.10;43.54;99237.22;4894130;29;20063;-68
2023/08/23 06:19:47;;;;;;;9.27;4.45;;;;;;;26.52;43.52;99236.47;4893575;29;20052;-70
2023/08/23 06:22:14;;;;;;;5.35;3.92;;;;;;;26.65;42.85;99238.94;4890463;29;20060;-71
2023/08/23 06:24:53;;;;;;;7.40;4.00;;;;;;;26.56;43.43;99233.41;4896400;29;20107;-69
2023/08/23 06:27:19;;;;;;;5.57;3.80;;;;;;;26.58;42.56;99182.59;4897592;29;20067;-69
2023/08/23 06:29:49;;;;;;;4.35;3.17;;;;;;;26.98;42.87;99205.84;4903429;29;20111;-71
2023/08/23 06:32:19;;;;;;;4.78;3.45;;;;;;;27.16;41.72;99234.59;4888607;29;20029;-66
2023/08/23 06:34:48;;;;;;;5.80;3.10;;;;;;;26.68;42.35;99210.16;4873546;29;20063;-70
2023/08/23 06:37:14;;;;;;;8.18;3.60;;;;;;;26.23;42.64;99221.94;4906001;29;20040;-66
2023/08/23 06:39:40;;;;;;;5.00;3.35;;;;;;;25.77;43.51;99237.19;4906144;29;20049;-72
2023/08/23 06:42:09;;;;;;;4.68;3.28;;;;;;;25.04;44.44;99223.47;4892402;29;20068;-75
2023/08/23 06:44:34;;;;;;;5.85;3.45;;;;;;;24.69;45.44;99230.53;4890211;29;20045;-73
2023/08/23 06:47:00;;;;;;;5.13;3.60;;;;;;;24.43;45.88;99235.19;4905689;29;20068;-72
2023/08/23 06:49:26;;;;;;;5.72;3.47;;;;;;;24.20;46.20;99224.47;4874892;29;20079;-74
2023/08/23 06:51:53;;;;;;;6.80;3.92;;;;;;;24.11;47.02;99235.81;4893043;29;20040;-75
2023/08/23 06:54:19;;;;;;;8.48;4.28;;;;;;;23.56;46.94;99185.72;4907385;29;20546;-71
2023/08/23 06:56:46;;;;;;;6.97;3.70;;;;;;;23.33;47.77;99182.94;4895031;29;20041;-75
2023/08/23 06:59:12;;;;;;;4.93;3.53;;;;;;;23.05;48.36;99184.91;4895560;29;20107;-79
2023/08/23 07:01:38;;;;;;;6.85;3.35;;;;;;;22.85;49.12;99170.38;4872851;29;20041;-77
2023/08/23 07:04:04;;;;;;;5.15;3.30;;;;;;;22.83;49.43;99207.63;4888246;29;20056;-73
2023/08/23 07:06:33;;;;;;;5.70;3.47;;;;;;;22.99;49.99;99256.94;4875405;29;20047;-75
2023/08/23 07:08:59;;;;;;;11.82;3.97;;;;;;;22.84;50.45;99264.97;4890652;29;20044;-70
2023/08/23 07:11:25;;;;;;;3.47;3.00;;;;;;;22.33;50.50;99223.31;4895106;29;20047;-73
2023/08/23 07:13:51;;;;;;;6.50;3.38;;;;;;;22.35;51.20;99255.88;4891260;29;20101;-74
2023/08/23 07:16:17;;;;;;;3.55;3.10;;;;;;;21.95;51.88;99232.03;4877062;29;20041;-74
2023/08/23 07:18:43;;;;;;;5.95;3.47;;;;;;;21.94;52.07;99267.41;4893549;29;20048;-75
2023/08/23 07:21:09;;;;;;;6.30;3.50;;;;;;;21.84;52.67;99264.50;4889244;29;20045;-73
2023/08/23 07:23:35;;;;;;;6.40;3.25;;;;;;;21.76;52.76;99254.41;4891818;29;20534;-74
2023/08/23 07:26:03;;;;;;;4.63;2.80;;;;;;;21.84;52.49;99227.41;4890380;29;20047;-74
2023/08/23 07:28:29;;;;;;;5.97;2.75;;;;;;;22.23;52.00;99252.25;4884872;29;20159;-71
2023/08/23 07:30:57;;;;;;;4.57;3.20;;;;;;;22.50;51.28;99261.97;4885802;29;20053;-71
2023/08/23 07:33:27;;;;;;;4.80;2.75;;;;;;;22.34;51.58;99226.84;4870996;29;20132;-70
2023/08/23 07:36:00;;;;;;;4.47;3.15;;;;;;;22.37;51.41;99245.19;4888929;29;20675;-71
2023/08/23 07:38:26;;;;;;;3.22;2.83;;;;;;;22.26;51.59;99228.19;4889567;29;20049;-72
2023/08/23 07:41:01;;;;;;;3.35;2.90;;;;;;;22.19;51.71;99234.84;4885780;29;20059;-72
2023/08/23 07:43:27;;;;;;;2.72;2.53;;;;;;;22.14;52.09;99255.50;4885396;29;20052;-70
2023/08/23 07:45:57;;;;;;;5.18;3.40;;;;;;;21.97;52.54;99256.59;4886647;29;20037;-72
2023/08/23 07:48:23;;;;;;;5.07;3.22;;;;;;;21.69;53.26;99250.44;4886460;29;20048;-71
2023/08/23 07:50:51;;;;;;;5.88;3.15;;;;;;;21.64;53.85;99271.91;4874991;29;20047;-72
2023/08/23 07:53:17;;;;;;;4.07;2.92;;;;;;;21.62;54.66;99272.97;4869895;29;20051;-74
2023/08/23 07:55:43;;;;;;;6.63;3.20;;;;;;;21.43;54.89;99249.41;4866592;29;21488;-73
2023/08/23 07:58:13;;;;;;;4.85;2.83;;;;;;;21.33;55.26;99262.38;4853062;29;20052;-72
2023/08/23 08:00:39;;;;;;;4.15;3.17;;;;;;;21.24;55.92;99271.72;4899393;29;20036;-72
2023/08/23 08:03:06;;;;;;;6.25;3.15;;;;;;;20.51;56.05;99194.13;4866909;29;20059;-76
2023/08/23 08:05:36;;;;;;;5.45;3.13;;;;;;;20.68;56.10;99267.09;4872503;29;20052;-76
2023/08/23 08:08:03;;;;;;;6.30;3.00;;;;;;;20.52;57.27;99258.38;4870646;29;20044;-75
2023/08/23 08:10:29;;;;;;;4.40;3.25;;;;;;;20.61;58.03;99269.25;4888148;29;20052;-73
2023/08/23 08:12:55;;;;;;;5.07;3.40;;;;;;;20.63;58.33;99266.53;4882845;29;20048;-75
2023/08/23 08:15:22;;;;;;;6.75;4.55;;;;;;;20.63;58.10;99269.19;4898328;29;20041;-72
2023/08/23 08:17:51;;;;;;;3.95;3.63;;;;;;;20.43;58.67;99247.41;4898811;29;20040;-72
2023/08/23 08:20:17;;;;;;;7.40;4.05;;;;;;;20.47;58.25;99248.91;4884839;29;20052;-73
2023/08/23 08:22:43;;;;;;;5.85;3.70;;;;;;;20.44;58.46;99245.63;4884601;29;20056;-73
2023/08/23 08:25:09;;;;;;;5.20;3.53;;;;;;;20.60;58.73;99258.78;4865627;29;20140;-77
2023/08/23 08:27:35;;;;;;;6.63;3.60;;;;;;;20.33;57.78;99188.13;4887186;29;20059;-74
2023/08/23 08:30:02;;;;;;;6.18;3.20;;;;;;;20.33;58.38;99180.22;4872566;29;20487;-73
2023/08/23 08:32:29;;;;;;;4.90;3.55;;;;;;;20.90;58.17;99260.56;4884080;29;20044;-72
2023/08/23 08:34:55;;;;;;;4.22;3.28;;;;;;;20.81;58.08;99216.19;4871314;29;20085;-72
2023/08/23 08:37:23;;;;;;;9.10;4.68;;;;;;;21.16;57.14;99234.31;4897713;29;20045;-71
2023/08/23 08:39:49;;;;;;;5.50;3.85;;;;;;;20.95;56.94;99168.59;4891967;29;20048;-72
2023/08/23 08:42:16;;;;;;;6.43;3.97;;;;;;;21.61;56.77;99229.75;4880676;29;20127;-75
2023/08/23 08:44:45;;;;;;;5.78;3.75;;;;;;;21.69;56.21;99149.84;4880237;29;20044;-73
2023/08/23 08:47:12;;;;;;;4.63;2.80;;;;;;;22.65;54.56;99214.16;4870653;29;20045;-76
2023/08/23 08:49:38;;;;;;;5.00;2.60;;;;;;;22.77;53.87;99170.06;4886211;29;20042;-75
2023/08/23 08:52:05;;;;;;;3.47;2.88;;;;;;;23.51;52.66;99235.66;4895141;29;20135;-74
2023/08/23 08:54:34;;;;;;;3.28;2.97;;;;;;;24.03;52.04;99241.69;4898364;29;20048;-72
2023/08/23 08:57:01;;;;;;;4.10;3.17;;;;;;;23.93;49.97;99230.88;4886619;29;20067;-75
2023/08/23 08:59:27;;;;;;;3.30;2.80;;;;;;;23.50;50.70;99210.09;4886994;29;20053;-71
2023/08/23 09:01:58;;;;;;;6.50;3.03;;;;;;;23.04;50.88;99241.56;4885597;29;20797;-76
2023/08/23 09:04:24;;;;;;;5.50;3.13;;;;;;;22.68;51.50;99243.13;4867946;29;20688;-75
2023/08/23 09:06:51;;;;;;;4.43;2.63;;;;;;;22.47;52.21;99248.09;4871433;29;20059;-71
2023/08/23 09:09:19;;;;;;;5.78;3.53;;;;;;;22.44;52.74;99237.69;4883082;29;20048;-72
2023/08/23 09:11:45;;;;;;;4.75;2.80;;;;;;;22.64;52.58;99231.03;4898033;29;20044;-72
2023/08/23 09:14:21;;;;;;;4.28;2.78;;;;;;;22.84;52.21;99209.28;4886553;29;20051;-71
2023/08/23 09:16:48;;;;;;;4.32;2.78;;;;;;;23.03;51.59;99213.34;4895922;29;20052;-72
2023/08/23 09:19:14;;;;;;;5.78;2.63;;;;;;;22.89;51.15;99232.00;4883269;29;20040;-76
2023/08/23 09:21:51;;;;;;;9.20;3.13;;;;;;;22.54;51.79;99252.00;4884042;29;20041;-74
2023/08/23 09:24:18;;;;;;;6.45;3.15;;;;;;;22.03;52.43;99221.78;4884382;29;20052;-75
2023/08/23 09:26:45;;;;;;;8.20;2.85;;;;;;;22.23;53.46;99246.94;4894475;29;20082;-71
2023/08/23 09:29:12;;;;;;;6.07;2.75;;;;;;;22.51;53.60;99247.78;4897934;29;20463;-74
2023/08/23 09:31:39;;;;;;;3.83;2.80;;;;;;;22.99;53.42;99238.38;4900028;29;20072;-72
2023/08/23 09:34:15;;;;;;;7.90;2.63;;;;;;;24.08;51.79;99204.13;4887649;29;20063;-77
2023/08/23 09:36:42;;;;;;;3.97;3.03;;;;;;;25.39;51.70;99207.34;4896999;29;20519;-73
2023/08/23 09:39:11;;;;;;;3.30;2.63;;;;;;;27.27;47.72;99222.97;4884943;29;20412;-73
2023/08/23 09:41:39;;;;;;;3.25;2.40;;;;;;;28.04;45.51;99199.22;4897910;29;20044;-73
2023/08/23 09:44:06;;;;;;;2.42;2.22;;;;;;;29.60;43.06;99216.69;4870181;29;20041;-72
2023/08/23 09:46:35;;;;;;;2.50;2.30;;;;;;;30.07;41.13;99200.59;4880603;29;20041;-75
2023/08/23 09:49:06;;;;;;;4.43;2.25;;;;;;;29.91;40.15;99223.53;4883049;29;20040;-72
2023/08/23 09:51:39;;;;;;;2.78;2.28;;;;;;;29.11;38.69;99192.81;4898740;29;20589;-73
2023/08/23 09:54:17;;;;;;;3.38;2.20;;;;;;;28.50;39.66;99208.34;4885316;29;20040;-74
2023/08/23 09:56:44;;;;;;;2.88;2.25;;;;;;;27.85;39.61;99200.91;4874532;29;20052;-71
2023/08/23 09:59:11;;;;;;;2.90;2.63;;;;;;;27.80;40.22;99213.84;4889513;29;20096;-76
2023/08/23 10:01:38;;;;;;;3.30;2.20;;;;;;;27.84;39.93;99198.34;4896770;29;20054;-75
2023/08/23 10:04:06;;;;;;;4.72;2.58;;;;;;;27.93;40.02;99226.94;4891972;29;20088;-74
2023/08/23 10:06:33;;;;;;;2.88;2.50;;;;;;;27.21;39.52;99141.59;4908155;29;20079;-75
2023/08/23 10:09:03;;;;;;;3.97;2.42;;;;;;;26.89;40.32;99148.78;4881205;29;20119;-79
2023/08/23 10:11:31;;;;;;;3.67;2.35;;;;;;;26.44;40.43;99138.44;4894191;29;20055;-78
2023/08/23 10:14:00;;;;;;;3.28;2.70;;;;;;;26.62;41.42;99208.00;4863696;29;20083;-77
2023/08/23 10:16:27;;;;;;;4.35;2.65;;;;;;;26.37;41.75;99214.59;4882348;29;20294;-76
2023/08/23 10:18:53;;;;;;;3.60;2.78;;;;;;;25.99;41.81;99191.00;4897815;29;20052;-77
2023/08/23 10:21:21;;;;;;;3.85;2.65;;;;;;;25.42;42.57;99158.34;4891185;29;20047;-77
2023/08/23 10:23:54;;;;;;;6.80;2.53;;;;;;;25.36;42.90;99206.75;4879010;29;20132;-79
2023/08/23 10:26:21;;;;;;;5.15;2.88;;;;;;;25.20;43.37;99185.81;4895221;29;20472;-76
2023/08/23 10:28:50;;;;;;;6.95;2.60;;;;;;;25.94;43.92;99179.00;4907907;29;20151;-76
2023/08/23 10:31:25;;;;;;;4.68;2.53;;;;;;;27.45;42.03;99216.00;4893973;29;20456;-76
2023/08/23 10:33:58;;;;;;;3.17;2.88;;;;;;;27.51;41.02;99191.44;4895403;29;20041;-78
2023/08/23 10:36:28;;;;;;;3.85;2.88;;;;;;;27.51;40.58;99212.81;4903008;29;20061;-76
2023/08/23 10:38:56;;;;;;;5.15;2.88;;;;;;;27.09;40.39;99191.56;4876670;29;20087;-76
2023/08/23 10:41:23;;;;;;;6.45;2.88;;;;;;;26.58;40.60;99196.78;4902248;29;20503;-77
2023/08/23 10:43:51;;;;;;;5.63;3.83;;;;;;;26.15;41.05;99203.91;4891018;29;20040;-77
2023/08/23 10:46:19;;;;;;;3.67;2.97;;;;;;;25.69;41.53;99189.88;4902222;29;20089;-77
2023/08/23 10:48:46;;;;;;;3.60;3.03;;;;;;;25.11;42.31;99161.66;4899795;29;20694;-75
2023/08/23 10:51:13;;;;;;;3.25;2.92;;;;;;;25.10;43.12;99233.63;4906959;29;20044;-76
2023/08/23 10:53:41;;;;;;;3.83;3.10;;;;;;;24.61;43.76;99219.63;4891939;29;20041;-76
2023/08/23 10:56:07;;;;;;;6.55;3.55;;;;;;;24.28;44.15;99235.38;4878319;29;20048;-78
2023/08/23 10:58:33;;;;;;;7.88;2.92;;;;;;;23.66;44.98;99250.50;4896652;29;20044;-79
2023/08/23 11:01:03;;;;;;;8.70;2.55;;;;;;;22.74;46.72;99244.50;4907446;29;20043;-77
2023/08/23 11:03:29;;;;;;;3.60;1.98;;;;;;;21.76;49.01;99256.19;4873049;29;20053;-76
2023/08/23 11:05:55;;;;;;;3.10;1.88;;;;;;;20.95;50.65;99247.06;4906960;29;20040;-73
2023/08/23 11:08:22;;;;;;;2.63;1.73;;;;;;;20.44;51.83;99249.09;4890719;29;20051;-78
2023/08/23 11:10:49;;;;;;;3.05;1.50;;;;;;;19.78;52.72;99200.06;4878640;29;20045;-80
2023/08/23 11:13:18;;;;;;;3.50;1.50;;;;;;;19.50;53.47;99213.03;4864991;29;20047;-79
2023/08/23 11:15:47;;;;;;;4.93;1.80;;;;;;;19.23;54.30;99215.38;4886742;29;20047;-77
2023/08/23 11:18:14;;;;;;;5.05;1.92;;;;;;;19.05;55.01;99218.06;4903262;29;20052;-76
2023/08/23 11:20:41;;;;;;;6.20;1.52;;;;;;;18.87;55.60;99219.84;4893061;29;20198;-78
2023/08/23 11:23:07;;;;;;;4.95;2.03;;;;;;;18.50;56.31;99185.75;4892330;29;20051;-73
2023/08/23 11:25:33;;;;;;;5.90;2.38;;;;;;;18.60;56.79;99219.50;4892842;29;20048;-75
2023/08/23 11:27:59;;;;;;;4.45;2.20;;;;;;;18.75;57.61;99252.13;4890995;29;20067;-77